Time;durP1;ratioP1;P1;durP2;ratioP2;P2;SDS_P1;SDS_P2;PMS_P1;PMS_P2;Temp;Humidity;BMP_temperature;BMP_pressure;BME280_temperature;BME280_humidity;BME280_pressure;Samples;Min_cycle;Max_cycle;Signal;HPM_P1;HPM_P2
2021/01/07 00:00:49;;;;;;;7.77;7.07;;;1.40;99.90;;;;;;5088764;28;20184;-74
2021/01/07 00:03:14;;;;;;;7.37;6.67;;;1.40;99.90;;;;;;5087798;28;20199;-74
2021/01/07 00:05:40;;;;;;;7.20;6.47;;;1.40;99.90;;;;;;5093112;28;20273;-74
2021/01/07 00:08:06;;;;;;;6.27;5.67;;;1.40;99.90;;;;;;5089629;28;20217;-74
2021/01/07 00:10:31;;;;;;;7.00;6.30;;;1.40;99.90;;;;;;5086337;28;20194;-74
2021/01/07 00:12:57;;;;;;;6.50;5.90;;;1.40;99.90;;;;;;5092772;28;20179;-74
2021/01/07 00:15:23;;;;;;;8.13;7.33;;;1.40;99.90;;;;;;5080607;28;20204;-75
2021/01/07 00:17:48;;;;;;;7.70;7.00;;;1.40;99.90;;;;;;5087695;28;20250;-75
2021/01/07 00:20:14;;;;;;;7.67;6.97;;;1.40;99.90;;;;;;5083700;28;20255;-75
2021/01/07 00:22:41;;;;;;;7.73;7.03;;;1.30;99.90;;;;;;5097853;28;20241;-75
2021/01/07 00:25:09;;;;;;;6.83;6.23;;;1.40;99.90;;;;;;5081248;28;20603;-74
2021/01/07 00:27:35;;;;;;;7.20;6.50;;;1.30;99.90;;;;;;5089197;28;20247;-75
2021/01/07 00:30:03;;;;;;;7.70;7.00;;;1.30;99.90;;;;;;5082200;28;20204;-75
2021/01/07 00:32:28;;;;;;;7.87;7.13;;;1.30;99.90;;;;;;5086556;28;20211;-75
2021/01/07 00:34:54;;;;;;;6.83;6.23;;;1.30;99.90;;;;;;5087611;28;20217;-75
2021/01/07 00:37:19;;;;;;;8.27;6.90;;;1.40;99.90;;;;;;5078146;28;20186;-75
2021/01/07 00:39:45;;;;;;;7.70;7.00;;;1.40;99.90;;;;;;5077343;28;20253;-75
2021/01/07 00:42:10;;;;;;;8.17;7.33;;;1.40;99.90;;;;;;5082496;28;20194;-75
2021/01/07 00:44:36;;;;;;;7.87;6.97;;;1.30;99.90;;;;;;5081998;28;20193;-75
2021/01/07 00:47:02;;;;;;;7.80;7.00;;;1.30;99.90;;;;;;5078764;28;20733;-74
2021/01/07 00:49:27;;;;;;;7.83;6.43;;;1.30;99.90;;;;;;5080579;28;20210;-74
2021/01/07 00:51:53;;;;;;;7.47;6.77;;;1.40;99.90;;;;;;5071302;28;20243;-76
2021/01/07 00:54:19;;;;;;;7.57;6.87;;;1.40;99.90;;;;;;5075347;28;20652;-74
2021/01/07 00:56:45;;;;;;;7.63;6.93;;;1.40;99.90;;;;;;5075076;28;20202;-74
2021/01/07 00:59:11;;;;;;;7.13;6.53;;;1.40;99.90;;;;;;5085574;28;20190;-74
2021/01/07 01:01:47;;;;;;;7.37;6.53;;;1.30;99.90;;;;;;5077610;28;20175;-75
2021/01/07 01:04:16;;;;;;;7.37;6.67;;;1.30;99.90;;;;;;5085819;28;20182;-74
2021/01/07 01:06:43;;;;;;;7.53;6.83;;;1.30;99.90;;;;;;5088640;28;20247;-74
2021/01/07 01:09:11;;;;;;;8.07;7.27;;;1.20;99.90;;;;;;5080012;28;20579;-76
2021/01/07 01:11:42;;;;;;;9.10;7.20;;;1.20;99.90;;;;;;5078809;28;20180;-75
2021/01/07 01:14:08;;;;;;;8.13;7.33;;;1.30;99.90;;;;;;5075741;28;20179;-74
2021/01/07 01:16:34;;;;;;;8.53;7.50;;;1.30;99.90;;;;;;5080539;28;20220;-74
2021/01/07 01:19:01;;;;;;;7.77;6.97;;;1.30;99.90;;;;;;5085964;28;20654;-74
2021/01/07 01:21:26;;;;;;;8.03;7.33;;;1.30;99.90;;;;;;5078053;28;20206;-74
2021/01/07 01:23:52;;;;;;;8.00;7.20;;;1.30;99.90;;;;;;5083450;28;20178;-76
2021/01/07 01:26:18;;;;;;;7.47;6.77;;;1.30;99.90;;;;;;5078985;28;20196;-74
2021/01/07 01:28:44;;;;;;;7.53;6.87;;;1.30;99.90;;;;;;5080242;28;20202;-75
2021/01/07 01:31:11;;;;;;;9.23;7.23;;;1.30;99.90;;;;;;5084446;28;20701;-74
2021/01/07 01:33:37;;;;;;;7.23;6.53;;;1.30;99.90;;;;;;5081910;28;20183;-75
2021/01/07 01:36:02;;;;;;;6.67;6.07;;;1.30;99.90;;;;;;5080806;28;20755;-74
2021/01/07 01:38:28;;;;;;;7.20;6.50;;;1.30;99.90;;;;;;5082441;28;20557;-74
2021/01/07 01:41:02;;;;;;;6.80;6.10;;;1.30;99.90;;;;;;5094450;28;20184;-76
2021/01/07 01:43:29;;;;;;;7.07;6.40;;;1.30;99.90;;;;;;5099473;28;20178;-74
2021/01/07 01:45:54;;;;;;;6.90;6.20;;;1.30;99.90;;;;;;5099881;28;20247;-75
2021/01/07 01:48:21;;;;;;;6.80;6.17;;;1.20;99.90;;;;;;5102492;28;20221;-75
2021/01/07 01:50:47;;;;;;;6.70;6.10;;;1.20;99.90;;;;;;5089318;28;20185;-75
2021/01/07 01:53:12;;;;;;;6.73;6.13;;;1.20;99.90;;;;;;5088921;28;20262;-75
2021/01/07 01:55:41;;;;;;;6.37;5.77;;;1.20;99.90;;;;;;5082295;28;20286;-75
2021/01/07 01:58:08;;;;;;;7.10;6.40;;;1.20;99.90;;;;;;5087160;28;20184;-76
2021/01/07 02:00:34;;;;;;;7.00;6.40;;;1.10;99.90;;;;;;5078854;28;20182;-74
2021/01/07 02:02:59;;;;;;;6.60;5.87;;;1.10;99.90;;;;;;5085088;28;20243;-75
2021/01/07 02:05:25;;;;;;;6.30;5.70;;;1.10;99.90;;;;;;5081178;28;20265;-75
2021/01/07 02:07:52;;;;;;;6.67;6.03;;;1.10;99.90;;;;;;5076270;28;20188;-73
2021/01/07 02:10:19;;;;;;;6.87;6.20;;;1.10;99.90;;;;;;5079412;28;20229;-75
2021/01/07 02:12:45;;;;;;;5.93;5.33;;;1.10;99.90;;;;;;5088276;28;20677;-75
2021/01/07 02:15:13;;;;;;;6.30;5.73;;;1.10;99.90;;;;;;5080736;28;20234;-76
2021/01/07 02:17:39;;;;;;;6.20;5.60;;;1.10;99.90;;;;;;5084783;28;20178;-75
2021/01/07 02:20:06;;;;;;;5.70;5.20;;;1.10;99.90;;;;;;5084100;28;20189;-75
2021/01/07 02:22:31;;;;;;;6.07;5.47;;;1.10;99.90;;;;;;5087653;28;20181;-75
2021/01/07 02:24:57;;;;;;;6.23;5.63;;;1.10;99.90;;;;;;5087061;28;20708;-75
2021/01/07 02:27:22;;;;;;;5.47;5.00;;;1.10;99.90;;;;;;5079873;28;20205;-75
2021/01/07 02:29:48;;;;;;;7.13;5.83;;;1.10;99.90;;;;;;5074791;28;20203;-74
2021/01/07 02:32:14;;;;;;;6.63;6.03;;;1.10;99.90;;;;;;5081009;28;20178;-74
2021/01/07 02:34:39;;;;;;;6.20;5.70;;;1.10;99.90;;;;;;5083832;28;20190;-76
2021/01/07 02:37:05;;;;;;;5.90;5.40;;;1.00;99.90;;;;;;5078286;28;20182;-74
2021/01/07 02:39:31;;;;;;;7.13;6.43;;;1.00;99.90;;;;;;5082375;28;20201;-74
2021/01/07 02:41:57;;;;;;;6.73;6.13;;;1.00;99.90;;;;;;5086987;28;20185;-74
2021/01/07 02:44:23;;;;;;;8.60;6.07;;;1.00;99.90;;;;;;5079407;28;20187;-75
2021/01/07 02:46:50;;;;;;;6.60;6.00;;;0.90;99.90;;;;;;5080317;28;20214;-74
2021/01/07 02:49:16;;;;;;;6.77;6.03;;;0.90;99.90;;;;;;5088395;28;20265;-74
2021/01/07 02:51:42;;;;;;;6.90;6.17;;;1.00;99.90;;;;;;5085209;28;20197;-75
2021/01/07 02:54:07;;;;;;;6.87;6.23;;;0.90;99.90;;;;;;5080677;28;20186;-75
2021/01/07 02:56:33;;;;;;;9.70;7.03;;;0.90;99.90;;;;;;5085847;28;20190;-76
2021/01/07 02:59:00;;;;;;;7.03;6.43;;;0.90;99.90;;;;;;5078628;28;20230;-75
2021/01/07 03:01:26;;;;;;;7.20;6.57;;;0.90;99.90;;;;;;5081439;28;20203;-76
2021/01/07 03:03:51;;;;;;;7.77;7.00;;;0.90;99.90;;;;;;5085338;28;20227;-74
2021/01/07 03:06:17;;;;;;;7.07;6.37;;;0.90;99.90;;;;;;5076284;28;20724;-74
2021/01/07 03:08:43;;;;;;;7.50;6.70;;;0.90;99.90;;;;;;5078464;28;20206;-77
2021/01/07 03:11:09;;;;;;;7.13;6.43;;;1.00;99.90;;;;;;5079536;28;20185;-74
2021/01/07 03:13:35;;;;;;;7.73;7.03;;;1.00;99.90;;;;;;5081383;28;20183;-74
2021/01/07 03:16:01;;;;;;;7.73;6.93;;;1.00;99.90;;;;;;5076339;28;20211;-74
2021/01/07 03:18:26;;;;;;;7.93;7.13;;;0.90;99.90;;;;;;5083270;28;20182;-74
2021/01/07 03:20:52;;;;;;;8.93;7.37;;;0.90;99.90;;;;;;5082383;28;20200;-75
2021/01/07 03:23:17;;;;;;;7.73;6.93;;;0.90;99.90;;;;;;5079044;28;20537;-75
2021/01/07 03:25:43;;;;;;;8.77;7.87;;;0.90;99.90;;;;;;5081710;28;20708;-75
2021/01/07 03:28:09;;;;;;;8.20;7.40;;;0.90;99.90;;;;;;5079489;28;20296;-75
2021/01/07 03:30:34;;;;;;;9.40;8.40;;;1.00;99.90;;;;;;5084230;28;20170;-75
2021/01/07 03:33:00;;;;;;;8.40;7.60;;;1.00;99.90;;;;;;5084080;28;20182;-75
2021/01/07 03:35:26;;;;;;;8.13;7.30;;;1.00;99.90;;;;;;5080047;28;20200;-74
2021/01/07 03:37:51;;;;;;;9.67;8.13;;;1.00;99.90;;;;;;5076021;28;20179;-74
2021/01/07 03:40:17;;;;;;;8.43;7.63;;;1.00;99.90;;;;;;5080177;28;20179;-76
2021/01/07 03:42:43;;;;;;;11.30;7.83;;;1.00;99.90;;;;;;5076283;28;20685;-76
2021/01/07 03:45:09;;;;;;;8.60;7.77;;;1.00;99.90;;;;;;5080309;28;20204;-74
2021/01/07 03:47:34;;;;;;;8.27;7.37;;;1.00;99.90;;;;;;5079120;28;20195;-76
2021/01/07 03:50:00;;;;;;;8.63;7.73;;;1.00;99.90;;;;;;5082094;28;20215;-76
2021/01/07 03:52:25;;;;;;;8.20;7.40;;;1.00;99.90;;;;;;5075416;28;20182;-74
2021/01/07 03:54:51;;;;;;;9.60;8.60;;;1.00;99.90;;;;;;5082526;28;20285;-75
2021/01/07 03:57:16;;;;;;;10.50;9.30;;;1.00;99.90;;;;;;5078597;28;21632;-76
2021/01/07 03:59:42;;;;;;;9.63;8.63;;;0.90;99.90;;;;;;5078425;28;20228;-73
2021/01/07 04:02:08;;;;;;;8.93;7.57;;;0.90;99.90;;;;;;5076256;28;20200;-76
2021/01/07 04:04:39;;;;;;;11.40;8.43;;;0.90;99.90;;;;;;5085844;28;20202;-74
2021/01/07 04:07:05;;;;;;;9.80;8.80;;;0.90;99.90;;;;;;5094789;28;20188;-74
2021/01/07 04:09:30;;;;;;;9.07;8.17;;;0.90;99.90;;;;;;5101124;28;20220;-77
2021/01/07 04:11:56;;;;;;;9.43;8.43;;;0.90;99.90;;;;;;5100593;28;20202;-75
2021/01/07 04:14:23;;;;;;;9.90;8.90;;;0.90;99.90;;;;;;5096075;28;20251;-75
2021/01/07 04:16:48;;;;;;;10.33;9.17;;;0.90;99.90;;;;;;5080123;28;20232;-74
2021/01/07 04:19:14;;;;;;;10.63;9.63;;;0.80;99.90;;;;;;5075135;28;20649;-75
2021/01/07 04:21:45;;;;;;;10.47;9.20;;;0.80;99.90;;;;;;5067220;28;21555;-75
2021/01/07 04:24:14;;;;;;;12.57;9.77;;;0.80;99.90;;;;;;5082081;28;20264;-74
2021/01/07 04:26:41;;;;;;;12.13;9.87;;;0.80;99.90;;;;;;5080051;28;20199;-75
2021/01/07 04:29:07;;;;;;;10.33;9.23;;;0.80;99.90;;;;;;5085551;28;20687;-74
2021/01/07 04:31:33;;;;;;;12.83;10.17;;;0.80;99.90;;;;;;5072115;28;20218;-75
2021/01/07 04:33:58;;;;;;;12.30;10.10;;;0.80;99.90;;;;;;5079502;28;20672;-76
2021/01/07 04:36:24;;;;;;;11.23;9.93;;;0.80;99.90;;;;;;5074878;28;20217;-75
2021/01/07 04:38:50;;;;;;;12.20;10.90;;;0.80;99.90;;;;;;5074044;28;20180;-75
2021/01/07 04:41:15;;;;;;;11.70;10.30;;;0.80;99.90;;;;;;5078404;28;20210;-75
2021/01/07 04:43:41;;;;;;;14.43;11.10;;;0.70;99.90;;;;;;5077417;28;20195;-75
2021/01/07 04:46:07;;;;;;;13.83;11.43;;;0.80;99.90;;;;;;5076777;28;20205;-76
2021/01/07 04:48:34;;;;;;;12.20;10.70;;;0.80;99.90;;;;;;5075845;28;20430;-76
2021/01/07 04:51:00;;;;;;;12.87;11.10;;;0.80;99.90;;;;;;5082862;28;20233;-75
2021/01/07 04:53:25;;;;;;;13.13;11.07;;;0.80;99.90;;;;;;5077345;28;20178;-75
2021/01/07 04:55:51;;;;;;;12.27;10.13;;;0.80;99.90;;;;;;5081922;28;20199;-75
2021/01/07 04:58:17;;;;;;;14.27;11.07;;;0.80;99.90;;;;;;5082020;28;20307;-77
2021/01/07 05:00:43;;;;;;;11.80;10.43;;;0.80;99.90;;;;;;5075018;28;20213;-75
2021/01/07 05:03:08;;;;;;;14.13;11.20;;;0.80;99.90;;;;;;5086613;28;20204;-76
2021/01/07 05:05:34;;;;;;;14.00;11.20;;;0.80;99.90;;;;;;5074826;28;20709;-79
2021/01/07 05:08:04;;;;;;;13.33;11.93;;;0.80;99.90;;;;;;5083692;28;20186;-76
2021/01/07 05:10:30;;;;;;;14.07;11.80;;;0.80;99.90;;;;;;5081998;28;20258;-74
2021/01/07 05:12:56;;;;;;;15.43;11.57;;;0.80;99.90;;;;;;5086652;28;20566;-75
2021/01/07 05:15:21;;;;;;;14.00;11.60;;;0.80;99.90;;;;;;5078237;28;20214;-75
2021/01/07 05:17:47;;;;;;;13.50;11.27;;;0.80;99.90;;;;;;5081676;28;20189;-75
2021/01/07 05:20:13;;;;;;;13.53;11.30;;;0.80;99.90;;;;;;5079824;28;20197;-75
2021/01/07 05:22:41;;;;;;;14.07;11.70;;;0.80;99.90;;;;;;5083021;28;20189;-77
2021/01/07 05:25:10;;;;;;;15.27;12.20;;;0.90;99.90;;;;;;5080984;28;20211;-75
2021/01/07 05:27:36;;;;;;;15.53;12.57;;;0.80;99.90;;;;;;5087325;28;20282;-75
2021/01/07 05:30:03;;;;;;;13.13;11.70;;;0.80;99.90;;;;;;5082045;28;20580;-75
2021/01/07 05:32:41;;;;;;;14.50;12.07;;;0.80;99.90;;;;;;5084840;28;20235;-76
2021/01/07 05:35:09;;;;;;;13.83;12.07;;;0.80;99.90;;;;;;5083482;28;20734;-75
2021/01/07 05:37:37;;;;;;;15.10;12.33;;;0.90;99.90;;;;;;5088774;28;20198;-75
2021/01/07 05:40:04;;;;;;;12.23;10.93;;;0.90;99.90;;;;;;5094286;28;20209;-75
2021/01/07 05:42:43;;;;;;;13.00;11.63;;;0.90;99.90;;;;;;5076733;28;20194;-76
2021/01/07 05:45:10;;;;;;;14.03;11.43;;;0.90;99.90;;;;;;5085782;28;20288;-75
2021/01/07 05:47:45;;;;;;;12.73;10.87;;;0.90;99.90;;;;;;5084491;28;20206;-75
2021/01/07 05:50:48;;;;;;;14.10;11.93;;;0.90;99.90;;;;;;5081166;28;20223;-75
2021/01/07 05:53:18;;;;;;;14.30;11.77;;;0.80;99.90;;;;;;5048510;28;20549;-76
2021/01/07 05:55:44;;;;;;;12.70;11.07;;;0.90;99.90;;;;;;5087291;28;20206;-75
2021/01/07 05:58:12;;;;;;;13.80;10.70;;;0.90;99.90;;;;;;5087434;28;20181;-75
2021/01/07 06:00:40;;;;;;;14.13;12.07;;;0.90;99.90;;;;;;5091114;28;20178;-75
2021/01/07 06:03:09;;;;;;;16.50;11.90;;;0.90;99.90;;;;;;5089588;28;20178;-74
2021/01/07 06:05:38;;;;;;;13.77;11.40;;;0.90;99.90;;;;;;5085763;28;20211;-74
2021/01/07 06:08:06;;;;;;;12.97;11.47;;;0.90;99.90;;;;;;5079414;28;20608;-74
2021/01/07 06:10:32;;;;;;;12.47;11.17;;;0.90;99.90;;;;;;5080185;28;20193;-76
2021/01/07 06:12:57;;;;;;;13.07;11.67;;;0.90;99.90;;;;;;5079834;28;20174;-75
2021/01/07 06:15:23;;;;;;;13.90;11.87;;;0.90;99.90;;;;;;5080754;28;20206;-75
2021/01/07 06:17:50;;;;;;;15.07;11.53;;;0.90;99.90;;;;;;5080441;28;20235;-74
2021/01/07 06:20:20;;;;;;;14.80;12.07;;;0.90;99.90;;;;;;5083412;28;20202;-75
2021/01/07 06:22:49;;;;;;;14.53;11.90;;;0.90;99.90;;;;;;5080707;28;20191;-74
2021/01/07 06:25:16;;;;;;;14.30;11.67;;;0.90;99.90;;;;;;5084888;28;20206;-74
2021/01/07 06:27:46;;;;;;;15.53;11.93;;;1.00;99.90;;;;;;5090969;28;20216;-75
2021/01/07 06:30:12;;;;;;;13.47;11.80;;;1.00;99.90;;;;;;5082344;28;20182;-75
2021/01/07 06:32:42;;;;;;;16.80;12.17;;;1.00;99.90;;;;;;5078606;28;20188;-75
2021/01/07 06:35:09;;;;;;;14.80;12.30;;;1.00;99.90;;;;;;5083343;28;20203;-75
2021/01/07 06:37:42;;;;;;;13.97;11.90;;;1.00;99.90;;;;;;5082667;28;20231;-75
2021/01/07 06:40:13;;;;;;;14.57;11.60;;;1.00;99.90;;;;;;5081917;28;20542;-74
2021/01/07 06:42:43;;;;;;;14.83;12.13;;;1.00;99.90;;;;;;5083258;28;20267;-75
2021/01/07 06:45:12;;;;;;;15.13;11.37;;;1.00;99.90;;;;;;5082374;28;20202;-74
2021/01/07 06:47:39;;;;;;;16.97;13.30;;;1.00;99.90;;;;;;5078776;28;20269;-74
2021/01/07 06:50:06;;;;;;;17.37;13.50;;;1.00;99.90;;;;;;5083011;28;20216;-75
2021/01/07 06:52:41;;;;;;;15.20;12.03;;;1.00;99.90;;;;;;5079303;28;20186;-74
2021/01/07 06:55:12;;;;;;;15.67;13.30;;;1.00;99.90;;;;;;5087753;28;20205;-75
2021/01/07 06:57:56;;;;;;;15.37;12.73;;;1.00;99.90;;;;;;5085687;28;20206;-74
2021/01/07 07:00:24;;;;;;;17.57;13.40;;;1.00;99.90;;;;;;5077941;28;20179;-74
2021/01/07 07:03:04;;;;;;;15.37;12.93;;;1.00;99.90;;;;;;5082721;28;20261;-74
2021/01/07 07:05:39;;;;;;;16.73;12.93;;;1.00;99.90;;;;;;5085554;28;20335;-74
2021/01/07 07:08:14;;;;;;;17.43;13.57;;;1.00;99.90;;;;;;5085627;28;20208;-74
2021/01/07 07:10:39;;;;;;;19.20;13.50;;;1.00;99.90;;;;;;5081605;28;20174;-74
2021/01/07 07:13:15;;;;;;;16.77;13.67;;;1.10;99.90;;;;;;5087809;28;20190;-74
2021/01/07 07:15:41;;;;;;;14.67;12.50;;;1.10;99.90;;;;;;5084305;28;20350;-74
2021/01/07 07:18:07;;;;;;;16.90;12.67;;;1.10;99.90;;;;;;5078650;28;20179;-74
2021/01/07 07:20:39;;;;;;;14.60;12.37;;;1.00;99.90;;;;;;5081384;28;20759;-74
2021/01/07 07:23:37;;;;;;;15.30;12.73;;;1.00;99.90;;;;;;5082974;28;20551;-73
2021/01/07 07:26:04;;;;;;;17.60;13.13;;;1.10;99.90;;;;;;5044981;28;20219;-73
2021/01/07 07:28:33;;;;;;;15.87;12.90;;;1.10;99.90;;;;;;5041372;28;20226;-73
2021/01/07 07:30:59;;;;;;;16.03;12.97;;;1.10;99.90;;;;;;5064270;28;20198;-74
2021/01/07 07:33:36;;;;;;;15.50;12.17;;;1.20;99.90;;;;;;5061489;28;20178;-75
2021/01/07 07:36:03;;;;;;;14.70;12.40;;;1.10;99.90;;;;;;5059906;28;20233;-73
2021/01/07 07:38:31;;;;;;;14.93;12.43;;;1.10;99.90;;;;;;5056449;28;20276;-73
2021/01/07 07:41:05;;;;;;;16.67;12.60;;;1.20;99.90;;;;;;5065329;28;20294;-73
2021/01/07 07:43:32;;;;;;;15.67;12.97;;;1.20;99.90;;;;;;5065966;28;20191;-74
2021/01/07 07:45:59;;;;;;;16.33;12.97;;;1.10;99.90;;;;;;5054593;28;20224;-74
2021/01/07 07:48:26;;;;;;;15.27;12.43;;;1.10;99.90;;;;;;5056392;28;20219;-73
2021/01/07 07:51:04;;;;;;;18.13;13.13;;;1.10;99.90;;;;;;5055836;28;20501;-73
2021/01/07 07:53:30;;;;;;;17.47;13.47;;;1.10;99.90;;;;;;5050033;28;20220;-74
2021/01/07 07:55:55;;;;;;;15.43;12.77;;;1.10;99.90;;;;;;5059742;28;20314;-74
2021/01/07 07:58:21;;;;;;;16.90;12.53;;;1.10;99.90;;;;;;5058907;28;20227;-73
2021/01/07 08:00:51;;;;;;;17.70;14.27;;;1.10;99.90;;;;;;5058529;28;20281;-73
2021/01/07 08:03:28;;;;;;;14.30;12.20;;;1.10;99.90;;;;;;5081229;28;20184;-72
2021/01/07 08:05:55;;;;;;;15.60;13.37;;;1.10;99.90;;;;;;5084383;28;20293;-73
2021/01/07 08:08:25;;;;;;;16.83;13.43;;;1.20;99.90;;;;;;5082366;28;20202;-73
2021/01/07 08:10:52;;;;;;;17.07;13.97;;;1.20;99.90;;;;;;5083846;28;20178;-72
2021/01/07 08:13:22;;;;;;;18.87;15.33;;;1.20;99.90;;;;;;5088033;28;20723;-74
2021/01/07 08:15:49;;;;;;;17.43;14.17;;;1.30;99.90;;;;;;5083723;28;20198;-72
2021/01/07 08:18:15;;;;;;;18.30;15.07;;;1.40;99.90;;;;;;5081807;28;20555;-73
2021/01/07 08:20:40;;;;;;;19.40;14.60;;;1.40;99.90;;;;;;5074337;28;20303;-73
2021/01/07 08:23:13;;;;;;;17.90;14.77;;;1.50;99.90;;;;;;5077324;28;20208;-73
2021/01/07 08:25:40;;;;;;;18.33;14.67;;;1.60;99.90;;;;;;5073779;28;20200;-73
2021/01/07 08:28:33;;;;;;;18.33;14.67;;;1.60;99.90;;;;;;5077278;28;20189;-73
2021/01/07 08:31:03;;;;;;;17.70;14.20;;;1.70;99.90;;;;;;5083079;28;20232;-73
2021/01/07 08:33:30;;;;;;;15.50;13.30;;;1.70;99.90;;;;;;5080215;28;20212;-73
2021/01/07 08:36:13;;;;;;;21.40;18.80;;;1.80;99.90;;;;;;5078783;28;20202;-73
2021/01/07 08:38:41;;;;;;;16.10;13.20;;;1.80;99.90;;;;;;5079448;28;20217;-73
2021/01/07 08:41:12;;;;;;;15.33;13.70;;;1.90;99.90;;;;;;5075009;28;20185;-73
2021/01/07 08:43:38;;;;;;;18.13;14.57;;;2.00;99.90;;;;;;5080843;28;20176;-73
2021/01/07 08:46:20;;;;;;;17.53;14.27;;;2.10;99.90;;;;;;5082665;28;20786;-72
2021/01/07 08:48:57;;;;;;;15.20;13.50;;;2.30;99.90;;;;;;5080312;28;20219;-72
2021/01/07 08:51:23;;;;;;;15.17;13.17;;;2.40;99.90;;;;;;5079314;28;20191;-72
2021/01/07 08:53:56;;;;;;;16.23;13.60;;;2.50;99.90;;;;;;5076273;28;20249;-72
2021/01/07 08:56:48;;;;;;;16.93;13.93;;;2.70;99.90;;;;;;5079400;28;20217;-73
2021/01/07 08:59:21;;;;;;;17.03;14.13;;;2.90;99.90;;;;;;5080607;28;20204;-73
2021/01/07 09:01:51;;;;;;;15.53;13.67;;;3.10;99.10;;;;;;5081530;28;20164;-73
2021/01/07 09:04:23;;;;;;;14.10;12.60;;;3.20;98.70;;;;;;5082035;28;20775;-73
2021/01/07 09:07:06;;;;;;;14.97;12.90;;;3.30;99.20;;;;;;5080709;28;20732;-73
2021/01/07 09:09:48;;;;;;;15.60;13.20;;;3.30;98.90;;;;;;5076165;28;20198;-73
2021/01/07 09:12:17;;;;;;;13.17;11.87;;;3.20;98.40;;;;;;5071388;28;20264;-73
2021/01/07 09:14:43;;;;;;;14.07;12.57;;;3.30;98.70;;;;;;5072790;28;20315;-73
2021/01/07 09:17:09;;;;;;;14.20;12.70;;;3.10;98.70;;;;;;5078845;28;20175;-73
2021/01/07 09:19:34;;;;;;;14.40;12.90;;;3.10;98.90;;;;;;5078151;28;20251;-72
2021/01/07 09:22:01;;;;;;;15.37;13.07;;;3.10;99.10;;;;;;5078086;28;20201;-72
2021/01/07 09:24:37;;;;;;;15.73;13.93;;;3.10;99.30;;;;;;5079023;28;20661;-72
2021/01/07 09:27:11;;;;;;;15.90;14.20;;;3.00;98.80;;;;;;5083018;28;20565;-73
2021/01/07 09:29:38;;;;;;;16.43;14.37;;;3.00;99.10;;;;;;5079309;28;20206;-72
2021/01/07 09:32:05;;;;;;;17.90;14.83;;;2.80;99.00;;;;;;5086082;28;20247;-73
2021/01/07 09:34:31;;;;;;;14.47;12.83;;;2.80;99.30;;;;;;5084452;28;20191;-73
2021/01/07 09:37:12;;;;;;;13.93;12.30;;;2.70;99.30;;;;;;5084579;28;20186;-72
2021/01/07 09:39:39;;;;;;;13.73;11.23;;;2.70;99.10;;;;;;5076095;28;20179;-73
2021/01/07 09:42:05;;;;;;;16.97;12.87;;;2.70;98.80;;;;;;5077979;28;20181;-71
2021/01/07 09:44:32;;;;;;;15.57;11.97;;;2.70;99.20;;;;;;5079314;28;20192;-72
2021/01/07 09:46:58;;;;;;;15.43;12.87;;;2.60;99.30;;;;;;5077516;28;20194;-73
2021/01/07 09:49:25;;;;;;;15.60;13.33;;;2.60;99.30;;;;;;5077971;28;20778;-72
2021/01/07 09:51:51;;;;;;;15.37;13.50;;;2.60;99.50;;;;;;5084428;28;20202;-72
2021/01/07 09:54:18;;;;;;;18.17;14.97;;;2.60;99.70;;;;;;5074342;28;20670;-72
2021/01/07 09:56:43;;;;;;;16.53;14.73;;;2.60;99.10;;;;;;5075738;28;20202;-73
2021/01/07 09:59:09;;;;;;;19.67;13.63;;;2.70;99.30;;;;;;5080017;28;20245;-73
2021/01/07 10:01:35;;;;;;;18.00;14.33;;;2.60;99.10;;;;;;5086478;28;20243;-72
2021/01/07 10:04:01;;;;;;;17.70;13.93;;;2.70;99.70;;;;;;5089068;28;20186;-73
2021/01/07 10:06:26;;;;;;;18.13;16.30;;;2.80;99.60;;;;;;5085115;28;20942;-73
2021/01/07 10:08:52;;;;;;;15.37;13.77;;;2.90;99.00;;;;;;5078061;28;20216;-73
2021/01/07 10:11:18;;;;;;;16.37;14.33;;;2.90;99.20;;;;;;5077308;28;20179;-73
2021/01/07 10:13:44;;;;;;;17.47;15.40;;;3.00;99.00;;;;;;5079205;28;20256;-73
2021/01/07 10:16:11;;;;;;;16.97;14.47;;;3.10;99.20;;;;;;5075603;28;20243;-73
2021/01/07 10:18:37;;;;;;;17.50;15.13;;;3.10;98.40;;;;;;5082388;28;20181;-73
2021/01/07 10:21:08;;;;;;;16.60;13.37;;;3.10;98.90;;;;;;5078112;28;20213;-73
2021/01/07 10:23:35;;;;;;;19.80;15.13;;;3.10;98.40;;;;;;5080844;28;20237;-73
2021/01/07 10:26:00;;;;;;;17.37;14.20;;;3.10;98.80;;;;;;5081081;28;20207;-73
2021/01/07 10:28:27;;;;;;;17.13;14.87;;;3.10;98.70;;;;;;5078870;28;20209;-73
2021/01/07 10:30:52;;;;;;;17.13;15.33;;;3.20;98.80;;;;;;5080294;28;20195;-73
2021/01/07 10:33:19;;;;;;;18.73;15.57;;;3.20;98.40;;;;;;5081732;28;20825;-72
2021/01/07 10:35:45;;;;;;;15.67;14.07;;;3.30;98.70;;;;;;5078959;28;20201;-72
2021/01/07 10:38:11;;;;;;;15.47;13.80;;;3.40;97.90;;;;;;5084343;28;20203;-74
2021/01/07 10:40:44;;;;;;;15.23;13.63;;;3.40;97.70;;;;;;5085158;28;20175;-71
2021/01/07 10:43:13;;;;;;;16.43;14.13;;;3.40;97.70;;;;;;5085342;28;20959;-74
2021/01/07 10:45:40;;;;;;;15.47;13.23;;;3.40;98.20;;;;;;5086888;28;20203;-73
2021/01/07 10:48:14;;;;;;;14.20;12.47;;;3.50;97.80;;;;;;5083045;28;20560;-72
2021/01/07 10:50:43;;;;;;;13.77;11.87;;;3.50;97.90;;;;;;5077212;28;20179;-74
2021/01/07 10:53:39;;;;;;;13.90;12.27;;;3.60;97.80;;;;;;5081467;28;20763;-74
2021/01/07 10:56:14;;;;;;;14.33;12.93;;;3.70;97.70;;;;;;5078389;28;20229;-73
2021/01/07 10:59:01;;;;;;;16.20;13.20;;;3.80;98.10;;;;;;5081147;28;20186;-73
2021/01/07 11:01:51;;;;;;;13.43;12.03;;;4.00;96.90;;;;;;5082235;28;20683;-72
2021/01/07 11:04:22;;;;;;;15.20;13.70;;;4.00;96.90;;;;;;5083261;28;20185;-73
2021/01/07 11:06:55;;;;;;;16.80;15.07;;;4.20;96.90;;;;;;5088285;28;20212;-73
2021/01/07 11:09:26;;;;;;;16.23;14.50;;;4.30;96.40;;;;;;5084256;28;20204;-73
2021/01/07 11:11:57;;;;;;;14.60;13.10;;;4.50;96.10;;;;;;5088068;28;20200;-73
2021/01/07 11:14:30;;;;;;;13.27;11.87;;;4.70;95.60;;;;;;5088832;28;20292;-75
2021/01/07 11:17:06;;;;;;;15.73;11.43;;;4.90;94.40;;;;;;5082472;28;20195;-73
2021/01/07 11:19:33;;;;;;;19.53;16.20;;;4.80;93.40;;;;;;5081507;28;20189;-75
2021/01/07 11:22:02;;;;;;;15.23;13.47;;;4.80;94.00;;;;;;5078723;28;20207;-73
2021/01/07 11:24:29;;;;;;;13.60;12.20;;;4.70;94.00;;;;;;5089942;28;20192;-74
2021/01/07 11:26:55;;;;;;;13.30;11.93;;;4.60;93.70;;;;;;5077548;28;20679;-74
2021/01/07 11:29:22;;;;;;;12.93;11.63;;;4.40;93.70;;;;;;5084453;28;20488;-74
2021/01/07 11:31:48;;;;;;;12.67;10.90;;;4.20;95.10;;;;;;5076520;28;20187;-74
2021/01/07 11:34:20;;;;;;;13.93;12.50;;;4.30;95.60;;;;;;5076293;28;20202;-74
2021/01/07 11:37:03;;;;;;;13.10;11.90;;;4.30;96.20;;;;;;5081433;28;20221;-73
2021/01/07 11:39:44;;;;;;;12.83;11.53;;;4.60;95.10;;;;;;5082364;28;20891;-73
2021/01/07 11:42:35;;;;;;;14.17;12.67;;;4.70;94.40;;;;;;5081555;28;20185;-73
2021/01/07 11:45:07;;;;;;;12.87;11.47;;;4.60;94.70;;;;;;5074166;28;20223;-73
2021/01/07 11:47:40;;;;;;;12.37;11.03;;;4.60;94.30;;;;;;5079278;28;20190;-69
2021/01/07 11:50:08;;;;;;;12.80;11.37;;;4.60;93.80;;;;;;5083255;28;20237;-74
2021/01/07 11:52:37;;;;;;;13.27;11.87;;;4.60;93.90;;;;;;5084163;28;20201;-73
2021/01/07 11:55:03;;;;;;;13.63;12.23;;;4.60;94.20;;;;;;5085478;28;20207;-72
2021/01/07 11:57:33;;;;;;;12.23;11.00;;;4.70;93.60;;;;;;5079068;28;20185;-74
2021/01/07 12:00:03;;;;;;;12.70;11.40;;;5.00;92.90;;;;;;5078297;28;20183;-72
2021/01/07 12:02:30;;;;;;;14.00;12.60;;;5.10;91.90;;;;;;5081875;28;20369;-73
2021/01/07 12:04:57;;;;;;;13.70;11.80;;;5.00;92.60;;;;;;5084624;28;20980;-73
2021/01/07 12:07:35;;;;;;;13.40;12.00;;;5.20;91.80;;;;;;5082522;28;20196;-72
2021/01/07 12:10:03;;;;;;;15.13;13.43;;;4.90;92.90;;;;;;5083048;28;20212;-73
2021/01/07 12:12:43;;;;;;;13.70;12.30;;;4.70;93.10;;;;;;5075643;28;20193;-73
2021/01/07 12:15:14;;;;;;;14.23;12.70;;;4.60;93.80;;;;;;5079438;28;20200;-73
2021/01/07 12:17:40;;;;;;;13.77;12.47;;;4.30;94.80;;;;;;5077425;28;20178;-72
2021/01/07 12:20:07;;;;;;;12.97;11.67;;;4.30;95.90;;;;;;5084599;28;20191;-73
2021/01/07 12:22:34;;;;;;;14.13;12.63;;;4.10;95.00;;;;;;5076054;28;20556;-72
2021/01/07 12:25:02;;;;;;;13.00;11.70;;;4.00;95.30;;;;;;5085798;28;20205;-73
2021/01/07 12:27:28;;;;;;;12.90;11.50;;;3.90;96.00;;;;;;5078249;28;20293;-73
2021/01/07 12:29:54;;;;;;;14.03;12.57;;;3.80;96.10;;;;;;5084715;28;20776;-74
2021/01/07 12:32:30;;;;;;;13.73;12.33;;;3.70;96.80;;;;;;5078371;28;20257;-73
2021/01/07 12:35:31;;;;;;;12.77;11.33;;;3.70;97.00;;;;;;5083373;28;20257;-74
2021/01/07 12:38:08;;;;;;;10.80;9.43;;;3.60;96.20;;;;;;5062896;28;20197;-72
2021/01/07 12:40:35;;;;;;;12.93;10.10;;;3.70;94.50;;;;;;5078580;28;20188;-73
2021/01/07 12:43:00;;;;;;;11.70;10.23;;;3.60;93.60;;;;;;5080064;28;20196;-73
2021/01/07 12:45:27;;;;;;;13.10;11.57;;;3.60;94.50;;;;;;5049448;28;20229;-73
2021/01/07 12:47:54;;;;;;;13.77;12.37;;;3.60;95.50;;;;;;5065944;28;20273;-71
2021/01/07 12:50:22;;;;;;;14.60;12.83;;;3.70;96.00;;;;;;5053033;28;20218;-73